Adel, Oregon
Current Conditions -  °F | °C
As of 12:35 PM on Saturday 25 Oct 2014 (Local Time) from KLKV Reporting Station
Overcast Overcast  
Wind Chill: 52°   Ceiling: 6000
Heat Index: 52°   Visibility: 10mi
Dew Point: 36°   Wind: 23mph
Humidity: 54%   Direction: 180°S
Pressure: 29.87"   Gusts: 41mph
Location:  42.18°N, 119.9°W
Report Text: KLKV 251935Z AUTO 18020G36KT 10SM SCT046 OVC060 11/02 A2987 RMK AO1
Loading
Personal Weather Stations






























Interactive Weather Map
Tropical Storm Tracking
New forecast layout! Learn more

10-Day Weather Forecast

Advertisements
Track Severe Weather on mobile